Time;durP1;ratioP1;P1;durP2;ratioP2;P2;SDS_P1;SDS_P2;PMS_P1;PMS_P2;Temp;Humidity;BMP_temperature;BMP_pressure;BME280_temperature;BME280_humidity;BME280_pressure;Samples;Min_cycle;Max_cycle;Signal;HPM_P1;HPM_P2
2021/09/10 00:02:15;;;;;;;19.80;17.80;;;20.00;92.70;;;;;;4993696;28;20051;-73
2021/09/10 00:04:40;;;;;;;20.97;16.93;;;20.00;92.70;;;;;;4993333;28;20046;-73
2021/09/10 00:07:06;;;;;;;20.37;16.27;;;20.00;92.70;;;;;;4993437;28;20104;-73
2021/09/10 00:09:32;;;;;;;19.87;16.90;;;19.90;92.70;;;;;;4992842;28;20050;-73
2021/09/10 00:11:57;;;;;;;18.50;15.70;;;19.90;92.80;;;;;;4994582;28;20042;-73
2021/09/10 00:14:23;;;;;;;17.03;13.50;;;19.80;93.00;;;;;;4994202;28;20085;-73
2021/09/10 00:16:48;;;;;;;18.67;14.23;;;19.70;93.10;;;;;;4993549;28;20034;-73
2021/09/10 00:19:14;;;;;;;15.97;14.27;;;19.70;93.40;;;;;;4992819;28;20133;-72
2021/09/10 00:21:39;;;;;;;19.53;13.77;;;19.60;93.50;;;;;;4993489;28;20062;-73
2021/09/10 00:24:05;;;;;;;16.20;13.07;;;19.60;93.70;;;;;;4992189;28;20050;-73
2021/09/10 00:26:31;;;;;;;17.27;12.70;;;19.50;93.80;;;;;;4992818;28;20415;-73
2021/09/10 00:28:56;;;;;;;17.63;12.37;;;19.50;93.90;;;;;;4994279;28;20081;-72
2021/09/10 00:31:22;;;;;;;17.27;13.77;;;19.50;94.00;;;;;;4993260;28;20039;-72
2021/09/10 00:33:47;;;;;;;15.87;12.20;;;19.50;94.10;;;;;;4994078;28;20046;-72
2021/09/10 00:36:13;;;;;;;19.60;17.43;;;19.40;94.20;;;;;;4992343;28;20093;-72
2021/09/10 00:38:39;;;;;;;21.17;18.07;;;19.40;94.30;;;;;;4993491;28;20049;-72
2021/09/10 00:41:05;;;;;;;17.10;14.30;;;19.40;94.40;;;;;;4992693;28;20085;-72
2021/09/10 00:43:30;;;;;;;20.97;16.97;;;19.40;94.50;;;;;;4993658;28;20061;-73
2021/09/10 00:45:58;;;;;;;21.07;18.13;;;19.40;94.60;;;;;;4992315;28;20058;-73
2021/09/10 00:48:26;;;;;;;18.30;16.50;;;19.30;94.60;;;;;;4993599;28;20462;-73
2021/09/10 00:50:52;;;;;;;17.63;15.43;;;19.30;94.70;;;;;;4992949;28;20081;-73
2021/09/10 00:53:18;;;;;;;18.13;16.20;;;19.30;94.70;;;;;;4993643;28;20121;-73
2021/09/10 00:55:47;;;;;;;25.60;19.87;;;19.30;94.80;;;;;;4993778;28;20514;-73
2021/09/10 00:58:13;;;;;;;23.87;20.33;;;19.30;94.90;;;;;;4993006;28;20490;-73
2021/09/10 01:00:39;;;;;;;20.60;17.67;;;19.30;95.00;;;;;;4992339;28;20046;-73
2021/09/10 01:03:05;;;;;;;21.90;19.50;;;19.30;95.00;;;;;;4992181;28;20054;-73
2021/09/10 01:05:31;;;;;;;22.33;19.80;;;19.20;95.10;;;;;;4993097;28;20054;-73
2021/09/10 01:07:57;;;;;;;23.33;20.33;;;19.20;95.10;;;;;;4993527;28;20073;-72
2021/09/10 01:10:27;;;;;;;21.97;19.00;;;19.20;95.20;;;;;;4993536;28;20153;-73
2021/09/10 01:12:53;;;;;;;21.13;18.10;;;19.20;95.70;;;;;;4992530;28;20061;-72
2021/09/10 01:15:20;;;;;;;23.57;18.30;;;19.20;95.30;;;;;;4993074;28;20514;-72
2021/09/10 01:17:47;;;;;;;22.10;17.57;;;19.20;95.40;;;;;;4993355;28;20132;-72
2021/09/10 01:20:13;;;;;;;21.97;18.57;;;19.20;95.50;;;;;;4992525;28;20061;-72
2021/09/10 01:22:39;;;;;;;18.50;16.50;;;19.20;95.50;;;;;;4992150;28;20064;-72
2021/09/10 01:25:15;;;;;;;19.03;16.50;;;19.20;95.50;;;;;;4993021;28;20445;-73
2021/09/10 01:27:47;;;;;;;20.03;16.67;;;19.20;95.50;;;;;;4992391;28;20050;-72
2021/09/10 01:30:15;;;;;;;23.27;19.07;;;19.20;95.40;;;;;;4991750;28;20060;-73
2021/09/10 01:32:42;;;;;;;20.30;16.27;;;19.30;95.40;;;;;;4992993;28;20566;-72
2021/09/10 01:35:08;;;;;;;18.83;16.80;;;19.30;95.30;;;;;;4991879;28;20042;-72
2021/09/10 01:37:34;;;;;;;21.07;17.90;;;19.30;95.20;;;;;;4992930;28;20408;-72
2021/09/10 01:40:00;;;;;;;19.53;17.17;;;19.30;95.20;;;;;;4991427;28;20058;-72
2021/09/10 01:42:26;;;;;;;19.37;17.27;;;19.30;95.20;;;;;;4992480;28;20506;-72
2021/09/10 01:44:52;;;;;;;19.07;16.97;;;19.30;95.20;;;;;;4992896;28;20053;-72
2021/09/10 01:47:18;;;;;;;20.30;17.57;;;19.30;95.20;;;;;;4991942;28;20380;-73
2021/09/10 01:49:44;;;;;;;23.70;17.43;;;19.30;95.20;;;;;;4992673;28;20046;-72
2021/09/10 01:52:09;;;;;;;20.07;16.37;;;19.20;95.20;;;;;;4991539;28;20045;-72
2021/09/10 01:54:35;;;;;;;15.80;14.13;;;19.20;95.20;;;;;;4991961;28;20042;-73
2021/09/10 01:57:01;;;;;;;18.07;15.30;;;19.20;95.30;;;;;;4992450;28;20510;-73
2021/09/10 01:59:27;;;;;;;19.90;15.70;;;19.10;95.40;;;;;;4990956;28;20057;-73
2021/09/10 02:01:52;;;;;;;22.37;16.97;;;19.20;95.60;;;;;;4992850;28;20121;-72
2021/09/10 02:04:19;;;;;;;20.63;15.83;;;19.10;95.70;;;;;;4992195;28;20038;-73
2021/09/10 02:06:45;;;;;;;19.23;16.63;;;19.00;95.70;;;;;;4991571;28;20617;-72
2021/09/10 02:09:11;;;;;;;22.50;17.93;;;19.00;95.90;;;;;;4991535;28;20141;-72
2021/09/10 02:11:36;;;;;;;21.27;17.07;;;19.00;95.90;;;;;;4991313;28;20046;-72
2021/09/10 02:14:03;;;;;;;22.07;19.63;;;19.00;96.00;;;;;;4991446;28;20436;-72
2021/09/10 02:16:29;;;;;;;20.20;18.10;;;18.90;96.10;;;;;;4991639;28;20050;-72
2021/09/10 02:18:55;;;;;;;21.40;18.43;;;18.90;96.20;;;;;;4991432;28;20046;-72
2021/09/10 02:21:20;;;;;;;20.10;18.03;;;18.90;96.30;;;;;;4992136;28;20495;-73
2021/09/10 02:23:46;;;;;;;22.90;18.53;;;18.90;96.30;;;;;;4991769;28;20050;-73
2021/09/10 02:26:11;;;;;;;22.77;20.30;;;18.90;96.40;;;;;;4990875;28;20108;-73
2021/09/10 02:28:37;;;;;;;23.70;21.20;;;18.80;96.40;;;;;;4991132;28;20046;-72
2021/09/10 02:31:02;;;;;;;23.87;21.40;;;18.80;96.40;;;;;;4991693;28;20074;-72
2021/09/10 02:33:28;;;;;;;22.27;20.07;;;18.70;96.40;;;;;;4992125;28;20447;-72
2021/09/10 02:35:55;;;;;;;25.80;21.33;;;18.70;96.50;;;;;;4992288;28;20068;-73
2021/09/10 02:38:21;;;;;;;25.17;22.47;;;18.70;96.60;;;;;;4990052;28;20058;-72
2021/09/10 02:40:47;;;;;;;24.10;21.70;;;18.70;96.70;;;;;;4992288;28;20125;-72
2021/09/10 02:43:12;;;;;;;25.90;23.17;;;18.70;96.70;;;;;;4992067;28;20088;-72
2021/09/10 02:45:41;;;;;;;27.53;24.17;;;18.70;96.70;;;;;;4990269;28;20057;-72
2021/09/10 02:48:07;;;;;;;29.40;26.23;;;18.70;96.90;;;;;;4992027;28;20050;-73
2021/09/10 02:50:33;;;;;;;28.90;25.37;;;18.70;96.90;;;;;;4991762;28;20061;-73
2021/09/10 02:52:58;;;;;;;35.47;31.70;;;18.60;97.00;;;;;;4992161;28;20125;-73
2021/09/10 02:55:24;;;;;;;33.93;30.33;;;18.60;97.10;;;;;;4991972;28;20502;-73
2021/09/10 02:57:50;;;;;;;35.93;32.20;;;18.70;97.20;;;;;;4991399;28;20060;-73
2021/09/10 03:00:16;;;;;;;33.93;30.40;;;18.70;97.30;;;;;;4990660;28;20039;-72
2021/09/10 03:02:41;;;;;;;37.87;33.87;;;18.70;97.30;;;;;;4992261;28;20086;-72
2021/09/10 03:05:08;;;;;;;34.97;31.17;;;18.70;97.30;;;;;;4989762;28;20475;-73
2021/09/10 03:07:34;;;;;;;40.37;34.97;;;18.80;97.30;;;;;;4990746;28;20052;-72
2021/09/10 03:09:59;;;;;;;32.80;29.37;;;18.80;97.30;;;;;;4995372;28;20554;-72
2021/09/10 03:12:25;;;;;;;33.00;29.40;;;18.80;97.40;;;;;;4993314;28;20097;-73
2021/09/10 03:14:51;;;;;;;43.13;35.47;;;18.70;97.40;;;;;;4995772;28;20046;-73
2021/09/10 03:17:16;;;;;;;38.27;33.87;;;18.70;97.50;;;;;;4995388;28;20435;-73
2021/09/10 03:19:42;;;;;;;41.63;37.13;;;18.70;97.50;;;;;;4994888;28;20541;-72
2021/09/10 03:22:08;;;;;;;45.77;38.67;;;18.70;97.60;;;;;;4993968;28;20446;-73
2021/09/10 03:24:33;;;;;;;42.90;38.40;;;18.70;97.60;;;;;;4995302;28;20046;-73
2021/09/10 03:26:59;;;;;;;42.27;37.73;;;18.70;97.60;;;;;;4994618;28;20077;-73
2021/09/10 03:29:24;;;;;;;43.50;37.20;;;18.70;97.70;;;;;;4994858;28;20096;-73
2021/09/10 03:31:50;;;;;;;44.70;39.90;;;18.80;97.70;;;;;;4995426;28;20078;-72
2021/09/10 03:34:16;;;;;;;48.10;39.73;;;18.80;97.70;;;;;;4994470;28;20046;-71
2021/09/10 03:36:41;;;;;;;47.47;41.87;;;18.80;97.80;;;;;;4994917;28;20085;-72
2021/09/10 03:39:07;;;;;;;44.77;39.93;;;18.80;97.80;;;;;;4994770;28;20130;-72
2021/09/10 03:41:32;;;;;;;47.53;42.20;;;18.70;97.90;;;;;;4993148;28;20050;-72
2021/09/10 03:43:58;;;;;;;53.13;41.63;;;18.70;98.10;;;;;;4995185;28;20042;-71
2021/09/10 03:46:24;;;;;;;53.83;43.50;;;18.70;98.20;;;;;;4993050;28;20495;-71
2021/09/10 03:48:50;;;;;;;50.43;42.83;;;18.70;98.30;;;;;;4992947;28;20046;-71
2021/09/10 03:51:16;;;;;;;52.63;41.57;;;18.60;98.40;;;;;;4993351;28;20484;-71
2021/09/10 03:53:42;;;;;;;54.63;42.77;;;18.60;98.50;;;;;;4994161;28;20125;-71
2021/09/10 03:56:08;;;;;;;53.87;42.00;;;18.60;98.60;;;;;;4994493;28;20269;-71
2021/09/10 03:58:33;;;;;;;57.43;42.90;;;18.60;98.80;;;;;;4994920;28;20050;-72
2021/09/10 04:00:59;;;;;;;55.70;43.17;;;18.60;98.80;;;;;;4994043;28;20046;-71
2021/09/10 04:03:25;;;;;;;60.73;43.77;;;18.50;98.90;;;;;;4994536;28;20117;-71
2021/09/10 04:05:50;;;;;;;62.93;47.37;;;18.50;99.10;;;;;;4994619;28;20054;-71
2021/09/10 04:08:16;;;;;;;64.97;48.43;;;18.50;99.20;;;;;;4993667;28;20070;-71
2021/09/10 04:10:42;;;;;;;64.57;46.57;;;18.50;99.30;;;;;;4994391;28;20085;-72
2021/09/10 04:13:09;;;;;;;62.10;47.60;;;18.50;99.40;;;;;;4994203;28;20449;-71
2021/09/10 04:15:34;;;;;;;62.27;46.90;;;18.40;99.50;;;;;;4992437;28;20057;-71
2021/09/10 04:18:01;;;;;;;54.90;46.13;;;18.50;99.60;;;;;;4994483;28;20126;-71
2021/09/10 04:20:27;;;;;;;61.90;47.67;;;18.50;99.70;;;;;;4992798;28;20571;-71
2021/09/10 04:22:53;;;;;;;65.37;49.07;;;18.50;99.80;;;;;;4992255;28;20049;-71
2021/09/10 04:25:19;;;;;;;77.73;50.30;;;18.50;99.80;;;;;;4993826;28;20050;-71
2021/09/10 04:27:44;;;;;;;64.73;49.03;;;18.50;99.90;;;;;;4993218;28;20483;-71
2021/09/10 04:30:10;;;;;;;61.00;45.87;;;18.50;99.90;;;;;;4992004;28;20054;-71
2021/09/10 04:32:37;;;;;;;72.43;49.87;;;18.50;99.90;;;;;;4992979;28;20408;-72
2021/09/10 04:35:03;;;;;;;63.53;47.93;;;18.40;99.90;;;;;;4994159;28;20500;-71
2021/09/10 04:37:29;;;;;;;55.93;41.97;;;18.40;99.90;;;;;;4992899;28;20129;-72
2021/09/10 04:39:55;;;;;;;64.07;46.97;;;18.40;99.90;;;;;;4994407;28;20144;-72
2021/09/10 04:42:21;;;;;;;72.60;51.07;;;18.40;99.90;;;;;;4993951;28;20042;-72
2021/09/10 04:44:46;;;;;;;63.57;45.83;;;18.40;99.90;;;;;;4992172;28;20100;-72
2021/09/10 04:47:12;;;;;;;63.13;47.30;;;18.40;99.90;;;;;;4992728;28;20046;-72
2021/09/10 04:49:39;;;;;;;61.87;46.80;;;18.40;99.90;;;;;;4992557;28;20046;-72
2021/09/10 04:52:05;;;;;;;67.97;48.77;;;18.30;99.90;;;;;;4992249;28;20423;-72
2021/09/10 04:54:30;;;;;;;56.03;42.80;;;18.30;99.90;;;;;;4992450;28;20080;-72
2021/09/10 04:56:56;;;;;;;51.43;43.13;;;18.30;99.90;;;;;;4993361;28;20048;-72
2021/09/10 04:59:21;;;;;;;62.20;48.63;;;18.30;99.90;;;;;;4993571;28;20129;-72
2021/09/10 05:01:47;;;;;;;55.60;45.03;;;18.20;99.90;;;;;;4993736;28;20116;-72
2021/09/10 05:04:13;;;;;;;58.07;42.70;;;18.30;99.90;;;;;;4991674;28;20061;-72
2021/09/10 05:06:40;;;;;;;64.43;48.70;;;18.30;99.90;;;;;;4993597;28;20050;-72
2021/09/10 05:09:05;;;;;;;56.13;44.70;;;18.30;99.90;;;;;;4992542;28;20046;-72
2021/09/10 05:11:31;;;;;;;52.60;41.57;;;18.30;99.90;;;;;;4992501;28;20050;-72
2021/09/10 05:13:57;;;;;;;62.43;45.80;;;18.30;99.90;;;;;;4992332;28;20090;-72
2021/09/10 05:16:25;;;;;;;66.07;49.07;;;18.30;99.90;;;;;;4993203;28;20054;-72
2021/09/10 05:18:51;;;;;;;64.63;49.40;;;18.30;99.90;;;;;;4992798;28;20062;-72
2021/09/10 05:21:16;;;;;;;60.50;47.37;;;18.30;99.90;;;;;;4993137;28;20492;-72
2021/09/10 05:23:42;;;;;;;65.27;45.33;;;18.30;99.90;;;;;;4993272;28;20049;-72
2021/09/10 05:26:08;;;;;;;68.13;48.20;;;18.30;99.90;;;;;;4992413;28;20057;-72
2021/09/10 05:28:34;;;;;;;62.07;46.97;;;18.30;99.90;;;;;;4992095;28;20046;-72
2021/09/10 05:30:59;;;;;;;71.67;49.20;;;18.30;99.90;;;;;;4991854;28;20053;-72
2021/09/10 05:33:25;;;;;;;60.83;43.97;;;18.30;99.90;;;;;;4992220;28;20049;-72
2021/09/10 05:35:50;;;;;;;56.77;42.97;;;18.30;99.90;;;;;;4992895;28;20065;-72
2021/09/10 05:38:16;;;;;;;67.23;47.57;;;18.30;99.90;;;;;;4992963;28;20050;-72
2021/09/10 05:40:41;;;;;;;64.03;45.93;;;18.20;99.90;;;;;;4992229;28;20046;-72
2021/09/10 05:43:07;;;;;;;81.90;49.37;;;18.20;99.90;;;;;;4991709;28;20096;-73
2021/09/10 05:45:33;;;;;;;90.27;52.80;;;18.20;99.90;;;;;;4993073;28;20088;-72
2021/09/10 05:47:58;;;;;;;56.27;45.13;;;18.10;99.90;;;;;;4992041;28;20045;-72
2021/09/10 05:50:24;;;;;;;67.83;46.73;;;18.20;99.90;;;;;;4991623;28;20054;-72
2021/09/10 05:52:49;;;;;;;71.87;46.90;;;18.10;99.90;;;;;;4992920;28;20050;-72
2021/09/10 05:55:15;;;;;;;62.17;45.00;;;18.10;99.90;;;;;;4992014;28;20097;-72
2021/09/10 05:57:40;;;;;;;81.40;46.97;;;18.10;99.90;;;;;;4993068;28;20053;-72
2021/09/10 06:00:07;;;;;;;87.17;48.93;;;18.00;99.90;;;;;;4991761;28;20383;-72
2021/09/10 06:02:32;;;;;;;63.57;43.07;;;18.00;99.90;;;;;;4991991;28;20538;-71
2021/09/10 06:04:58;;;;;;;66.50;47.23;;;18.00;99.90;;;;;;4992791;28;20081;-72
2021/09/10 06:07:23;;;;;;;61.43;45.97;;;18.00;99.90;;;;;;4991718;28;20096;-72
2021/09/10 06:09:49;;;;;;;66.53;45.47;;;18.00;99.90;;;;;;4993006;28;20132;-72
2021/09/10 06:12:15;;;;;;;68.40;49.57;;;18.00;99.90;;;;;;4992611;28;20053;-72
2021/09/10 06:14:40;;;;;;;65.87;49.83;;;18.10;99.90;;;;;;4992011;28;20082;-72
2021/09/10 06:17:06;;;;;;;61.43;45.27;;;18.10;99.90;;;;;;4992510;28;20149;-72
2021/09/10 06:19:32;;;;;;;62.77;43.40;;;18.10;99.90;;;;;;4991967;28;20035;-72
2021/09/10 06:21:57;;;;;;;73.83;49.97;;;18.20;99.90;;;;;;4989882;28;20046;-72
2021/09/10 06:24:23;;;;;;;85.30;51.63;;;18.10;99.90;;;;;;4990204;28;20561;-72
2021/09/10 06:26:49;;;;;;;81.33;50.37;;;18.20;99.90;;;;;;4992036;28;20053;-71
2021/09/10 06:29:15;;;;;;;86.90;51.47;;;18.10;99.90;;;;;;4990792;28;20053;-71
2021/09/10 06:31:40;;;;;;;80.37;50.30;;;18.20;99.90;;;;;;4992921;28;20046;-71
2021/09/10 06:34:07;;;;;;;82.20;52.20;;;18.20;99.90;;;;;;4992776;28;20046;-71
2021/09/10 06:36:33;;;;;;;65.17;46.57;;;18.10;99.90;;;;;;4990424;28;20051;-71
2021/09/10 06:38:58;;;;;;;70.37;48.27;;;18.10;99.90;;;;;;4990642;28;20052;-71
2021/09/10 06:41:24;;;;;;;64.30;47.67;;;18.10;99.90;;;;;;4990225;28;20046;-71
2021/09/10 06:43:49;;;;;;;62.50;48.47;;;18.10;99.90;;;;;;4993365;28;20129;-71
2021/09/10 06:46:15;;;;;;;60.67;45.37;;;18.10;99.90;;;;;;4995801;28;20170;-72
2021/09/10 06:48:41;;;;;;;66.33;47.30;;;18.20;99.90;;;;;;4992845;28;20126;-71
2021/09/10 06:51:07;;;;;;;64.87;47.20;;;18.20;99.90;;;;;;4995076;28;20050;-71
2021/09/10 06:53:35;;;;;;;61.77;45.67;;;18.20;99.90;;;;;;4996281;28;20376;-71
2021/09/10 06:56:01;;;;;;;58.27;44.27;;;18.20;99.90;;;;;;4994633;28;20058;-71
2021/09/10 06:58:26;;;;;;;61.10;44.60;;;18.20;99.90;;;;;;4995119;28;20395;-71
2021/09/10 07:00:52;;;;;;;61.90;43.90;;;18.20;99.90;;;;;;4993011;28;20105;-71
2021/09/10 07:03:18;;;;;;;54.43;41.70;;;18.20;99.90;;;;;;4994103;28;20133;-71
2021/09/10 07:05:43;;;;;;;49.90;37.80;;;18.20;99.90;;;;;;4993514;28;20080;-71
2021/09/10 07:08:09;;;;;;;48.80;38.53;;;18.30;99.90;;;;;;4994286;28;20057;-71
2021/09/10 07:10:35;;;;;;;49.23;39.53;;;18.30;99.90;;;;;;4995002;28;20435;-71
2021/09/10 07:13:01;;;;;;;53.93;40.20;;;18.40;99.90;;;;;;4994523;28;20058;-72
2021/09/10 07:15:27;;;;;;;51.90;41.17;;;18.50;99.90;;;;;;4991949;28;20055;-71
2021/09/10 07:17:56;;;;;;;51.87;42.43;;;18.50;99.90;;;;;;4994966;28;20038;-71
2021/09/10 07:20:21;;;;;;;54.20;43.63;;;18.60;99.90;;;;;;4993936;28;20107;-71
2021/09/10 07:22:47;;;;;;;58.93;47.40;;;18.60;99.90;;;;;;4994656;28;20069;-71
2021/09/10 07:25:13;;;;;;;61.37;47.70;;;18.70;99.90;;;;;;4994736;28;20061;-71
2021/09/10 07:27:38;;;;;;;71.80;53.93;;;18.80;99.90;;;;;;4992694;28;20422;-72
2021/09/10 07:30:04;;;;;;;75.13;55.37;;;18.80;99.90;;;;;;4994455;28;20066;-71
2021/09/10 07:32:30;;;;;;;79.97;58.03;;;18.90;99.90;;;;;;4994365;28;20042;-71
2021/09/10 07:34:56;;;;;;;81.33;59.33;;;19.00;99.90;;;;;;4994244;28;20057;-71
2021/09/10 07:37:27;;;;;;;79.63;58.93;;;19.10;99.90;;;;;;4994556;28;20082;-71
2021/09/10 07:39:53;;;;;;;;;;;19.10;99.90;;;;;;4992555;28;20469;-71
2021/09/10 07:42:20;;;;;;;80.70;55.43;;;19.20;99.90;;;;;;4985924;28;19921;-71
2021/09/10 07:44:45;;;;;;;82.63;56.90;;;19.30;99.90;;;;;;4991380;28;20552;-72
2021/09/10 07:47:11;;;;;;;83.40;61.43;;;19.30;99.90;;;;;;4990478;28;20050;-74
2021/09/10 07:49:40;;;;;;;88.23;59.63;;;19.40;99.90;;;;;;4990701;28;20457;-72
2021/09/10 07:52:05;;;;;;;76.67;57.30;;;19.50;99.90;;;;;;4991240;28;20050;-73
2021/09/10 07:54:31;;;;;;;70.07;55.00;;;19.60;99.90;;;;;;4988534;28;20053;-73
2021/09/10 07:56:57;;;;;;;72.27;55.43;;;19.60;99.90;;;;;;4991187;28;20046;-72
2021/09/10 07:59:22;;;;;;;77.07;55.70;;;19.70;99.90;;;;;;4990289;28;20514;-73
2021/09/10 08:01:48;;;;;;;75.77;56.03;;;19.80;99.90;;;;;;4989287;28;20049;-74
2021/09/10 08:04:13;;;;;;;68.50;52.37;;;19.80;99.90;;;;;;4990764;28;20050;-74
2021/09/10 08:06:39;;;;;;;71.50;52.93;;;19.90;99.90;;;;;;4991471;28;20415;-73
2021/09/10 08:09:05;;;;;;;73.50;54.77;;;19.90;99.90;;;;;;4990761;28;20322;-74
2021/09/10 08:11:33;;;;;;;67.93;53.53;;;20.00;99.90;;;;;;4990767;28;20038;-73
2021/09/10 08:13:59;;;;;;;68.60;52.73;;;20.00;99.90;;;;;;4990082;28;20046;-76
2021/09/10 08:16:25;;;;;;;64.23;50.97;;;20.10;99.90;;;;;;4990804;28;20061;-75
2021/09/10 08:18:51;;;;;;;70.90;52.67;;;20.10;99.90;;;;;;4990025;28;20137;-76
2021/09/10 08:21:17;;;;;;;67.40;51.37;;;20.10;99.90;;;;;;4989940;28;20188;-76
2021/09/10 08:23:42;;;;;;;63.13;49.30;;;20.10;99.90;;;;;;4989410;28;20045;-76
2021/09/10 08:26:08;;;;;;;60.33;50.43;;;20.20;99.90;;;;;;4989719;28;20054;-77
2021/09/10 08:28:33;;;;;;;70.20;52.53;;;20.20;99.90;;;;;;4988822;28;20057;-77
2021/09/10 08:30:59;;;;;;;65.23;51.47;;;20.30;99.90;;;;;;4989714;28;20169;-76
2021/09/10 08:33:24;;;;;;;61.80;50.13;;;20.30;99.90;;;;;;4990709;28;20039;-76
2021/09/10 08:35:50;;;;;;;67.47;51.33;;;20.30;99.90;;;;;;4988142;28;20060;-76
2021/09/10 08:38:16;;;;;;;73.70;52.33;;;20.40;99.90;;;;;;4987810;28;20097;-76
2021/09/10 08:40:45;;;;;;;71.43;52.00;;;20.50;99.90;;;;;;4988531;28;20050;-76
2021/09/10 08:43:11;;;;;;;68.73;52.30;;;20.50;99.90;;;;;;4991222;28;20507;-76
2021/09/10 08:45:36;;;;;;;62.90;52.00;;;20.50;99.90;;;;;;4993749;28;20038;-76
2021/09/10 08:48:02;;;;;;;65.13;49.80;;;20.50;99.90;;;;;;4993101;28;20050;-76
2021/09/10 08:50:28;;;;;;;66.60;49.57;;;20.60;99.90;;;;;;4993212;28;20487;-76
2021/09/10 08:52:54;;;;;;;60.35;46.80;;;20.60;99.90;;;;;;4994270;28;20045;-76
2021/09/10 08:55:20;;;;;;;62.63;47.80;;;20.60;99.90;;;;;;4993699;28;20097;-76
2021/09/10 08:57:51;;;;;;;62.28;49.17;;;20.60;99.90;;;;;;4993233;28;20046;-76
2021/09/10 09:00:18;;;;;;;;;;;20.60;99.90;;;;;;4993774;28;20049;-76
2021/09/10 09:02:59;;;;;;;57.88;46.80;;;20.60;99.90;;;;;;4993742;28;19922;-76
2021/09/10 09:05:26;;;;;;;59.17;46.17;;;20.70;99.90;;;;;;4990815;28;20042;-76
2021/09/10 09:08:17;;;;;;;63.23;47.53;;;20.70;99.90;;;;;;4993598;28;20133;-76
2021/09/10 09:10:53;;;;;;;60.10;45.13;;;20.70;99.90;;;;;;4991881;28;20042;-75
2021/09/10 09:13:20;;;;;;;59.60;45.67;;;20.70;99.90;;;;;;4993477;28;20050;-75
2021/09/10 09:15:46;;;;;;;57.88;45.83;;;20.80;99.90;;;;;;4992763;28;20089;-76
2021/09/10 09:18:12;;;;;;;59.17;46.58;;;20.80;99.90;;;;;;4991489;28;20053;-76
2021/09/10 09:20:37;;;;;;;61.17;49.08;;;20.90;99.90;;;;;;4992643;28;20058;-77
2021/09/10 09:23:08;;;;;;;64.18;48.42;;;20.80;99.90;;;;;;4990881;28;20042;-77
2021/09/10 09:25:41;;;;;;;62.90;49.03;;;20.90;99.90;;;;;;4991725;28;20054;-77
2021/09/10 09:28:22;;;;;;;65.78;49.80;;;20.90;99.90;;;;;;4991242;28;20082;-75
2021/09/10 09:30:59;;;;;;;58.17;46.45;;;20.90;99.70;;;;;;4991808;28;20038;-73
2021/09/10 09:33:29;;;;;;;57.60;46.00;;;21.00;99.70;;;;;;4991570;28;20046;-75
2021/09/10 09:35:59;;;;;;;53.28;43.15;;;21.00;99.60;;;;;;4992178;28;20065;-73
2021/09/10 09:38:29;;;;;;;53.80;43.65;;;21.00;99.40;;;;;;4990528;28;20073;-73
2021/09/10 09:41:06;;;;;;;58.33;45.60;;;21.10;99.40;;;;;;4991365;28;20141;-72
2021/09/10 09:43:34;;;;;;;58.60;45.30;;;21.10;99.30;;;;;;4973589;28;20249;-73
2021/09/10 09:46:00;;;;;;;50.47;40.28;;;21.20;99.30;;;;;;4990209;28;20057;-72
2021/09/10 09:48:27;;;;;;;56.33;45.55;;;21.20;99.10;;;;;;4990864;28;20065;-72
2021/09/10 09:50:55;;;;;;;58.03;47.60;;;21.20;99.10;;;;;;4990828;28;20133;-72
2021/09/10 09:53:22;;;;;;;55.90;44.50;;;21.20;99.00;;;;;;4991386;28;20057;-72
2021/09/10 09:55:49;;;;;;;54.92;42.78;;;21.30;98.80;;;;;;4974734;28;20081;-72
2021/09/10 09:58:16;;;;;;;51.88;42.88;;;21.30;98.70;;;;;;4992419;28;20042;-71
2021/09/10 10:00:45;;;;;;;46.92;41.85;;;21.30;98.60;;;;;;4991674;28;20408;-71
2021/09/10 10:03:11;;;;;;;53.30;43.50;;;21.30;98.60;;;;;;4974518;28;20447;-71
2021/09/10 10:06:00;;;;;;;57.35;44.78;;;21.40;98.60;;;;;;4991979;28;20042;-72
2021/09/10 10:08:31;;;;;;;51.38;43.30;;;21.50;98.40;;;;;;4973999;28;20495;-71
2021/09/10 10:10:59;;;;;;;;;;;21.50;98.30;;;;;;4992727;28;20038;-71
2021/09/10 10:13:29;;;;;;;43.47;38.60;;;21.60;98.20;;;;;;4991741;28;19965;-71
2021/09/10 10:15:55;;;;;;;46.08;40.40;;;21.60;98.10;;;;;;4992337;28;20188;-71
2021/09/10 10:18:41;;;;;;;43.95;38.72;;;21.70;98.00;;;;;;4994506;28;20561;-71
2021/09/10 10:21:09;;;;;;;47.92;38.97;;;21.70;97.70;;;;;;4995518;28;20042;-72
2021/09/10 10:23:46;;;;;;;46.08;39.90;;;21.80;97.60;;;;;;4979076;28;20073;-72
2021/09/10 10:26:19;;;;;;;44.53;39.38;;;21.90;97.30;;;;;;4996203;28;20061;-72
2021/09/10 10:28:48;;;;;;;44.47;39.50;;;21.90;97.20;;;;;;4968542;28;20050;-71
2021/09/10 10:31:15;;;;;;;48.85;41.47;;;22.00;97.10;;;;;;4972475;28;20073;-71
2021/09/10 10:34:06;;;;;;;49.15;41.63;;;22.00;96.80;;;;;;4973533;28;20126;-71
2021/09/10 10:36:34;;;;;;;44.03;39.22;;;22.10;96.50;;;;;;4995644;28;20057;-71
2021/09/10 10:39:08;;;;;;;46.28;40.45;;;22.10;96.50;;;;;;5012320;28;20053;-71
2021/09/10 10:41:53;;;;;;;46.25;40.45;;;22.10;96.30;;;;;;4994224;28;20103;-71
2021/09/10 10:44:30;;;;;;;46.13;40.60;;;22.20;96.20;;;;;;5012331;28;20780;-71
2021/09/10 10:47:10;;;;;;;48.15;41.38;;;22.20;96.00;;;;;;4994366;28;20140;-71
2021/09/10 10:49:43;;;;;;;45.35;39.88;;;22.20;95.90;;;;;;5011272;28;20053;-75
2021/09/10 10:52:35;;;;;;;45.35;39.58;;;22.20;95.60;;;;;;4980234;28;20078;-72
2021/09/10 10:55:22;;;;;;;43.00;38.15;;;22.10;95.40;;;;;;4974434;28;20046;-73
2021/09/10 10:58:09;;;;;;;44.10;39.25;;;22.10;95.50;;;;;;4992023;28;20070;-73
2021/09/10 11:00:34;;;;;;;44.72;40.13;;;22.10;95.60;;;;;;4957699;28;20059;-73
2021/09/10 11:03:16;;;;;;;43.70;39.38;;;22.10;95.60;;;;;;4991576;28;20049;-73
2021/09/10 11:05:43;;;;;;;44.22;39.83;;;22.10;95.50;;;;;;4991963;28;20054;-72
2021/09/10 11:08:09;;;;;;;42.88;38.35;;;22.10;95.50;;;;;;4992085;28;20066;-72
2021/09/10 11:10:35;;;;;;;41.65;37.65;;;22.10;95.40;;;;;;4973461;28;20042;-73
2021/09/10 11:13:01;;;;;;;41.40;37.42;;;22.20;95.30;;;;;;4974212;28;20053;-72
2021/09/10 11:15:30;;;;;;;42.38;38.28;;;22.20;95.10;;;;;;4974022;28;20061;-74
2021/09/10 11:18:02;;;;;;;44.60;40.05;;;22.10;94.90;;;;;;4974139;28;20141;-71
2021/09/10 11:20:34;;;;;;;40.78;36.78;;;22.10;95.00;;;;;;4973694;28;20050;-71
2021/09/10 11:23:00;;;;;;;39.47;35.67;;;22.10;95.10;;;;;;4973812;28;20890;-72
2021/09/10 11:25:26;;;;;;;41.10;37.17;;;22.10;95.20;;;;;;4990378;28;20057;-71
2021/09/10 11:27:52;;;;;;;38.13;34.20;;;22.30;94.90;;;;;;4976013;28;20343;-73
2021/09/10 11:30:18;;;;;;;36.60;33.20;;;22.40;94.70;;;;;;4975564;28;20325;-73
2021/09/10 11:32:43;;;;;;;38.97;35.30;;;22.50;94.20;;;;;;4976077;28;20057;-73
2021/09/10 11:35:17;;;;;;;38.83;35.10;;;22.50;94.10;;;;;;4994120;28;20137;-73
2021/09/10 11:37:55;;;;;;;34.58;31.27;;;22.60;94.00;;;;;;4994508;28;20509;-73
2021/09/10 11:40:31;;;;;;;37.15;33.45;;;22.70;93.80;;;;;;4976843;28;20141;-72
2021/09/10 11:43:03;;;;;;;33.47;30.25;;;22.70;93.80;;;;;;4973210;28;20440;-73
2021/09/10 11:45:30;;;;;;;34.92;31.75;;;22.60;93.30;;;;;;4957101;28;20121;-73
2021/09/10 11:47:57;;;;;;;33.60;30.42;;;22.70;93.30;;;;;;4957856;28;20046;-74
2021/09/10 11:50:23;;;;;;;32.88;29.88;;;22.70;93.10;;;;;;4975164;28;20125;-73
2021/09/10 11:52:48;;;;;;;33.90;30.67;;;22.80;93.20;;;;;;4974248;28;20130;-74
2021/09/10 11:55:16;;;;;;;34.72;31.73;;;22.90;93.20;;;;;;4957763;28;20047;-74
2021/09/10 11:57:43;;;;;;;35.55;31.98;;;22.90;92.80;;;;;;4974803;28;20507;-73
2021/09/10 12:00:24;;;;;;;36.75;33.33;;;22.90;92.70;;;;;;4974449;28;20089;-74
2021/09/10 12:02:57;;;;;;;34.80;31.65;;;22.90;92.70;;;;;;4957811;28;20043;-73
2021/09/10 12:05:23;;;;;;;35.22;31.58;;;23.00;92.60;;;;;;4974680;28;20046;-74
2021/09/10 12:07:50;;;;;;;36.10;32.58;;;23.00;92.50;;;;;;4973698;28;20039;-73
2021/09/10 12:10:35;;;;;;;34.75;31.48;;;23.10;92.30;;;;;;4973020;28;20118;-73
2021/09/10 12:13:15;;;;;;;31.48;28.55;;;23.20;91.90;;;;;;4972682;28;20551;-73
2021/09/10 12:15:42;;;;;;;33.97;30.88;;;23.30;92.00;;;;;;4957158;28;20050;-74
2021/09/10 12:18:15;;;;;;;33.90;30.70;;;23.30;91.70;;;;;;4957447;28;20043;-74
2021/09/10 12:20:42;;;;;;;32.33;29.13;;;23.40;91.10;;;;;;4957127;28;20402;-74
2021/09/10 12:23:18;;;;;;;33.22;30.10;;;23.60;90.90;;;;;;4949254;28;20444;-73
2021/09/10 12:25:58;;;;;;;31.20;28.20;;;23.70;90.40;;;;;;4954087;28;20085;-73
2021/09/10 12:28:31;;;;;;;29.60;26.65;;;23.80;88.80;;;;;;4952891;28;20134;-75
2021/09/10 12:31:09;;;;;;;30.50;27.70;;;23.80;89.00;;;;;;4953887;28;20475;-72